Mari Lampton — WDE3648 — position and weather

sailwx.info

Track history (hours):
 
Tides and Currents Weather Stations Pressure Air Temp Water Temp Dewpoint Dewpoint Depression Visibility Wind Speed Wind Dir Waves Ship Positions

Mari Lampton

Owner: MAgnolia Marine Transport Company, Vicksburg, MS. More information available from US FCC via Universal Licensing System and Coast Guard Vessel Documentation Center.

Last reported at 2016-Sep-07 08:33 UTC. Time now 2016-Sep-28 00:04 UTC.
Position N 32°36' W 091°08'.
Warning: this ship's position is 20 days out of date.

Length 34 m.

Type: Towing. MMSI: 367342210.

Date/timePositionNaut miles runAvg speedWind from/ knotsBaromVisibWave heightAir tempDewpointWater temp
2016-Sep-07 08:33N 32°36' W 091°08'4 4.0
2016-Sep-07 07:26N 32°31' W 091°06'4 4.4
2016-Sep-07 06:33N 32°28' W 091°06'7 3.3
2016-Sep-07 04:33N 32°23' W 091°00'3 3.4
2016-Sep-07 03:33N 32°21' W 090°57'3 2.8
2016-Sep-07 02:33N 32°21' W 090°53'0 0.1
2016-Sep-07 01:33N 32°21' W 090°53'2 2.5
2016-Sep-07 00:33N 32°23' W 090°53'1 0.6
2016-Sep-06 23:33N 32°23' W 090°54'0 0.0
2016-Sep-06 22:34N 32°23' W 090°54'2 2.5
2016-Sep-06 21:33N 32°21' W 090°53'3 2.5
2016-Sep-06 20:33N 32°23' W 090°53'0 0.4
2016-Sep-06 19:33N 32°23' W 090°53'1 1.0
2016-Sep-06 18:33N 32°23' W 090°54'0 0.0
2016-Sep-06 17:33N 32°23' W 090°54'1 1.1
2016-Sep-06 16:33N 32°23' W 090°53'0 0.0
2016-Sep-06 15:33N 32°23' W 090°53'0 0.0
2016-Sep-06 14:33N 32°23' W 090°53'0 0.0
2016-Sep-06 13:33N 32°23' W 090°53'0 0.0
2016-Sep-06 12:33N 32°23' W 090°53'0 0.0
2016-Sep-06 11:33N 32°23' W 090°53'0 0.0
2016-Sep-06 10:34N 32°23' W 090°53'0 0.0
2016-Sep-06 09:33N 32°23' W 090°53'0 0.0
2016-Sep-06 08:33N 32°23' W 090°53'0 0.0
2016-Sep-06 07:33N 32°23' W 090°53'0 0.0
2016-Sep-06 06:33N 32°23' W 090°53'0 0.0
2016-Sep-06 04:33N 32°23' W 090°53'0 0.0
2016-Sep-06 03:33N 32°23' W 090°53'0 0.0
2016-Sep-06 02:33N 32°23' W 090°53'0 0.0
2016-Sep-06 01:33N 32°23' W 090°53'1 1.0
2016-Sep-06 00:33N 32°23' W 090°54'1 1.4
2016-Sep-05 23:33N 32°23' W 090°52'2 2.3
2016-Sep-05 22:33N 32°20' W 090°54'0 0.1
2016-Sep-05 21:33N 32°20' W 090°54'0 0.0
2016-Sep-05 20:33N 32°20' W 090°54'0 0.0
2016-Sep-05 19:33N 32°20' W 090°54'0 0.0
2016-Sep-05 18:33N 32°20' W 090°54'0 0.0
2016-Sep-05 17:33N 32°20' W 090°54'0 0.0
2016-Sep-05 16:33N 32°20' W 090°54'0 0.0
2016-Sep-05 15:33N 32°20' W 090°54'3 3.3
2016-Sep-05 14:33N 32°18' W 090°56'6 5.9
2016-Sep-05 13:33N 32°12' W 090°59'8 4.0
2016-Sep-05 11:33N 32°08' W 091°07'  
Track history (hours):
 
Tides and Currents Weather Stations Pressure Air Temp Water Temp Dewpoint Dewpoint Depression Visibility Wind Speed Wind Dir Waves Ship Positions

Mari Lampton

Owner: MAgnolia Marine Transport Company, Vicksburg, MS. More information available from US FCC via Universal Licensing System and Coast Guard Vessel Documentation Center.

Last reported at 2016-Sep-07 08:33 UTC. Time now 2016-Sep-28 00:04 UTC.
Position N 32°36' W 091°08'.
Warning: this ship's position is 20 days out of date.

Length 34 m.

Type: Towing. MMSI: 367342210.

Date/timePositionNaut miles runAvg speedWind from/ knotsBaromVisibWave heightAir tempDewpointWater temp
2016-Sep-07 08:33N 32°36' W 091°08'4 4.0
2016-Sep-07 07:26N 32°31' W 091°06'4 4.4
2016-Sep-07 06:33N 32°28' W 091°06'7 3.3
2016-Sep-07 04:33N 32°23' W 091°00'3 3.4
2016-Sep-07 03:33N 32°21' W 090°57'3 2.8
2016-Sep-07 02:33N 32°21' W 090°53'0 0.1
2016-Sep-07 01:33N 32°21' W 090°53'2 2.5
2016-Sep-07 00:33N 32°23' W 090°53'1 0.6
2016-Sep-06 23:33N 32°23' W 090°54'0 0.0
2016-Sep-06 22:34N 32°23' W 090°54'2 2.5
2016-Sep-06 21:33N 32°21' W 090°53'3 2.5
2016-Sep-06 20:33N 32°23' W 090°53'0 0.4
2016-Sep-06 19:33N 32°23' W 090°53'1 1.0
2016-Sep-06 18:33N 32°23' W 090°54'0 0.0
2016-Sep-06 17:33N 32°23' W 090°54'1 1.1
2016-Sep-06 16:33N 32°23' W 090°53'0 0.0
2016-Sep-06 15:33N 32°23' W 090°53'0 0.0
2016-Sep-06 14:33N 32°23' W 090°53'0 0.0
2016-Sep-06 13:33N 32°23' W 090°53'0 0.0
2016-Sep-06 12:33N 32°23' W 090°53'0 0.0
2016-Sep-06 11:33N 32°23' W 090°53'0 0.0
2016-Sep-06 10:34N 32°23' W 090°53'0 0.0
2016-Sep-06 09:33N 32°23' W 090°53'0 0.0
2016-Sep-06 08:33N 32°23' W 090°53'0 0.0
2016-Sep-06 07:33N 32°23' W 090°53'0 0.0
2016-Sep-06 06:33N 32°23' W 090°53'0 0.0
2016-Sep-06 04:33N 32°23' W 090°53'0 0.0
2016-Sep-06 03:33N 32°23' W 090°53'0 0.0
2016-Sep-06 02:33N 32°23' W 090°53'0 0.0
2016-Sep-06 01:33N 32°23' W 090°53'1 1.0
2016-Sep-06 00:33N 32°23' W 090°54'1 1.4
2016-Sep-05 23:33N 32°23' W 090°52'2 2.3
2016-Sep-05 22:33N 32°20' W 090°54'0 0.1
2016-Sep-05 21:33N 32°20' W 090°54'0 0.0
2016-Sep-05 20:33N 32°20' W 090°54'0 0.0
2016-Sep-05 19:33N 32°20' W 090°54'0 0.0
2016-Sep-05 18:33N 32°20' W 090°54'0 0.0
2016-Sep-05 17:33N 32°20' W 090°54'0 0.0
2016-Sep-05 16:33N 32°20' W 090°54'0 0.0
2016-Sep-05 15:33N 32°20' W 090°54'3 3.3
2016-Sep-05 14:33N 32°18' W 090°56'6 5.9
2016-Sep-05 13:33N 32°12' W 090°59'8 4.0
2016-Sep-05 11:33N 32°08' W 091°07'  

Dump ship's entire track history